sensor_id;sensor_type;location;lat;lon;timestamp;P1;durP1;ratioP1;P2;durP2;ratioP2
69623;SDS011;56843;52.020;5.670;2023-04-24T00:00:40;2.63;;;0.90;;
69623;SDS011;56843;52.020;5.670;2023-04-24T00:02:11;3.50;;;1.10;;
69623;SDS011;56843;52.020;5.670;2023-04-24T00:03:43;2.33;;;0.80;;
69623;SDS011;56843;52.020;5.670;2023-04-24T00:05:14;2.00;;;0.70;;
69623;SDS011;56843;52.020;5.670;2023-04-24T00:06:45;2.72;;;1.00;;
69623;SDS011;56843;52.020;5.670;2023-04-24T00:08:19;1.92;;;0.60;;
69623;SDS011;56843;52.020;5.670;2023-04-24T00:09:50;2.13;;;0.80;;
69623;SDS011;56843;52.020;5.670;2023-04-24T00:11:20;3.90;;;1.00;;
69623;SDS011;56843;52.020;5.670;2023-04-24T00:12:51;2.67;;;0.90;;
69623;SDS011;56843;52.020;5.670;2023-04-24T00:14:21;5.28;;;0.60;;
69623;SDS011;56843;52.020;5.670;2023-04-24T00:15:52;2.93;;;1.10;;
69623;SDS011;56843;52.020;5.670;2023-04-24T00:17:22;2.27;;;0.80;;
69623;SDS011;56843;52.020;5.670;2023-04-24T00:18:53;3.60;;;0.90;;
69623;SDS011;56843;52.020;5.670;2023-04-24T00:20:24;4.38;;;1.10;;
69623;SDS011;56843;52.020;5.670;2023-04-24T00:21:54;3.60;;;0.80;;
69623;SDS011;56843;52.020;5.670;2023-04-24T00:23:25;2.70;;;0.95;;
69623;SDS011;56843;52.020;5.670;2023-04-24T00:24:56;3.73;;;0.80;;
69623;SDS011;56843;52.020;5.670;2023-04-24T00:26:26;2.00;;;0.88;;
69623;SDS011;56843;52.020;5.670;2023-04-24T00:27:57;2.40;;;0.97;;
69623;SDS011;56843;52.020;5.670;2023-04-24T00:29:27;2.83;;;0.83;;
69623;SDS011;56843;52.020;5.670;2023-04-24T00:30:58;1.98;;;0.77;;
69623;SDS011;56843;52.020;5.670;2023-04-24T00:32:29;3.80;;;1.20;;
69623;SDS011;56843;52.020;5.670;2023-04-24T00:34:00;2.58;;;0.73;;
69623;SDS011;56843;52.020;5.670;2023-04-24T00:35:32;2.60;;;0.93;;
69623;SDS011;56843;52.020;5.670;2023-04-24T00:37:02;2.07;;;0.90;;
69623;SDS011;56843;52.020;5.670;2023-04-24T00:38:33;2.95;;;0.80;;
69623;SDS011;56843;52.020;5.670;2023-04-24T00:40:04;2.03;;;0.80;;
69623;SDS011;56843;52.020;5.670;2023-04-24T00:41:35;1.83;;;0.75;;
69623;SDS011;56843;52.020;5.670;2023-04-24T00:43:05;1.60;;;0.60;;
69623;SDS011;56843;52.020;5.670;2023-04-24T00:44:36;2.42;;;0.80;;
69623;SDS011;56843;52.020;5.670;2023-04-24T00:46:07;2.75;;;1.17;;
69623;SDS011;56843;52.020;5.670;2023-04-24T00:47:37;2.43;;;0.87;;
69623;SDS011;56843;52.020;5.670;2023-04-24T00:49:08;2.97;;;1.10;;
69623;SDS011;56843;52.020;5.670;2023-04-24T00:50:39;6.77;;;1.40;;
69623;SDS011;56843;52.020;5.670;2023-04-24T00:52:10;5.03;;;1.05;;
69623;SDS011;56843;52.020;5.670;2023-04-24T00:53:40;4.80;;;1.10;;
69623;SDS011;56843;52.020;5.670;2023-04-24T00:55:11;3.70;;;1.15;;
69623;SDS011;56843;52.020;5.670;2023-04-24T00:56:42;2.40;;;0.90;;
69623;SDS011;56843;52.020;5.670;2023-04-24T00:58:14;4.20;;;1.10;;
69623;SDS011;56843;52.020;5.670;2023-04-24T00:59:44;3.60;;;1.00;;
69623;SDS011;56843;52.020;5.670;2023-04-24T01:04:00;3.07;;;0.73;;
69623;SDS011;56843;52.020;5.670;2023-04-24T01:05:31;2.47;;;0.90;;
69623;SDS011;56843;52.020;5.670;2023-04-24T01:07:02;2.53;;;0.80;;
69623;SDS011;56843;52.020;5.670;2023-04-24T01:08:34;3.42;;;1.20;;
69623;SDS011;56843;52.020;5.670;2023-04-24T01:10:07;7.57;;;0.90;;
69623;SDS011;56843;52.020;5.670;2023-04-24T01:11:38;3.70;;;0.90;;
69623;SDS011;56843;52.020;5.670;2023-04-24T01:13:13;4.90;;;0.90;;
69623;SDS011;56843;52.020;5.670;2023-04-24T01:14:44;3.65;;;1.00;;
69623;SDS011;56843;52.020;5.670;2023-04-24T01:16:14;6.13;;;0.83;;
69623;SDS011;56843;52.020;5.670;2023-04-24T01:17:47;2.38;;;0.95;;
69623;SDS011;56843;52.020;5.670;2023-04-24T01:19:18;2.17;;;0.77;;
69623;SDS011;56843;52.020;5.670;2023-04-24T01:20:49;2.03;;;0.70;;
69623;SDS011;56843;52.020;5.670;2023-04-24T01:22:23;4.75;;;1.08;;
69623;SDS011;56843;52.020;5.670;2023-04-24T01:23:53;1.97;;;0.70;;
69623;SDS011;56843;52.020;5.670;2023-04-24T01:25:25;2.40;;;1.00;;
69623;SDS011;56843;52.020;5.670;2023-04-24T01:27:00;2.63;;;0.90;;
69623;SDS011;56843;52.020;5.670;2023-04-24T01:28:31;1.90;;;0.60;;
69623;SDS011;56843;52.020;5.670;2023-04-24T01:30:01;2.00;;;0.63;;
69623;SDS011;56843;52.020;5.670;2023-04-24T01:31:34;1.75;;;0.70;;
69623;SDS011;56843;52.020;5.670;2023-04-24T01:33:05;2.65;;;0.95;;
69623;SDS011;56843;52.020;5.670;2023-04-24T01:34:36;3.17;;;0.70;;
69623;SDS011;56843;52.020;5.670;2023-04-24T01:36:08;5.50;;;0.73;;
69623;SDS011;56843;52.020;5.670;2023-04-24T01:37:41;2.33;;;0.80;;
69623;SDS011;56843;52.020;5.670;2023-04-24T01:39:12;2.57;;;0.80;;
69623;SDS011;56843;52.020;5.670;2023-04-24T01:40:43;2.38;;;0.70;;
69623;SDS011;56843;52.020;5.670;2023-04-24T01:42:13;6.73;;;0.70;;
69623;SDS011;56843;52.020;5.670;2023-04-24T01:43:44;3.55;;;0.77;;
69623;SDS011;56843;52.020;5.670;2023-04-24T01:45:15;1.90;;;0.70;;
69623;SDS011;56843;52.020;5.670;2023-04-24T01:46:45;8.20;;;0.93;;
69623;SDS011;56843;52.020;5.670;2023-04-24T01:48:16;1.92;;;0.68;;
69623;SDS011;56843;52.020;5.670;2023-04-24T01:49:47;8.80;;;0.80;;
69623;SDS011;56843;52.020;5.670;2023-04-24T01:51:18;7.05;;;0.80;;
69623;SDS011;56843;52.020;5.670;2023-04-24T01:52:48;3.83;;;1.43;;
69623;SDS011;56843;52.020;5.670;2023-04-24T01:54:19;3.88;;;1.80;;
69623;SDS011;56843;52.020;5.670;2023-04-24T01:55:50;2.33;;;0.80;;
69623;SDS011;56843;52.020;5.670;2023-04-24T01:57:21;3.58;;;1.42;;
69623;SDS011;56843;52.020;5.670;2023-04-24T01:58:52;4.18;;;1.58;;
69623;SDS011;56843;52.020;5.670;2023-04-24T02:00:24;7.07;;;1.00;;
69623;SDS011;56843;52.020;5.670;2023-04-24T02:01:57;4.88;;;2.40;;
69623;SDS011;56843;52.020;5.670;2023-04-24T02:03:27;3.20;;;1.20;;
69623;SDS011;56843;52.020;5.670;2023-04-24T02:04:59;6.93;;;1.38;;
69623;SDS011;56843;52.020;5.670;2023-04-24T02:06:31;1.88;;;0.82;;
69623;SDS011;56843;52.020;5.670;2023-04-24T02:08:04;3.15;;;1.00;;
69623;SDS011;56843;52.020;5.670;2023-04-24T02:09:35;5.13;;;1.40;;
69623;SDS011;56843;52.020;5.670;2023-04-24T02:11:05;10.48;;;1.40;;
69623;SDS011;56843;52.020;5.670;2023-04-24T02:12:36;9.03;;;1.90;;
69623;SDS011;56843;52.020;5.670;2023-04-24T02:14:06;3.72;;;1.25;;
69623;SDS011;56843;52.020;5.670;2023-04-24T02:15:37;3.53;;;1.20;;
69623;SDS011;56843;52.020;5.670;2023-04-24T02:17:07;4.23;;;2.00;;
69623;SDS011;56843;52.020;5.670;2023-04-24T02:18:40;8.20;;;2.23;;
69623;SDS011;56843;52.020;5.670;2023-04-24T02:20:11;5.32;;;1.50;;
69623;SDS011;56843;52.020;5.670;2023-04-24T02:21:42;5.97;;;2.50;;
69623;SDS011;56843;52.020;5.670;2023-04-24T02:23:12;4.23;;;1.60;;
69623;SDS011;56843;52.020;5.670;2023-04-24T02:24:43;6.93;;;1.73;;
69623;SDS011;56843;52.020;5.670;2023-04-24T02:26:14;4.13;;;1.27;;
69623;SDS011;56843;52.020;5.670;2023-04-24T02:27:45;4.47;;;1.50;;
69623;SDS011;56843;52.020;5.670;2023-04-24T02:29:15;4.20;;;1.50;;
69623;SDS011;56843;52.020;5.670;2023-04-24T02:30:46;3.60;;;1.43;;
69623;SDS011;56843;52.020;5.670;2023-04-24T02:32:16;3.97;;;1.40;;
69623;SDS011;56843;52.020;5.670;2023-04-24T02:33:47;3.17;;;1.00;;
69623;SDS011;56843;52.020;5.670;2023-04-24T02:35:18;5.18;;;1.48;;
69623;SDS011;56843;52.020;5.670;2023-04-24T02:36:48;4.10;;;1.60;;
69623;SDS011;56843;52.020;5.670;2023-04-24T02:38:19;4.22;;;1.83;;
69623;SDS011;56843;52.020;5.670;2023-04-24T02:39:49;4.97;;;2.07;;
69623;SDS011;56843;52.020;5.670;2023-04-24T02:41:20;5.45;;;2.28;;
69623;SDS011;56843;52.020;5.670;2023-04-24T02:42:50;4.20;;;1.70;;
69623;SDS011;56843;52.020;5.670;2023-04-24T02:44:21;5.87;;;2.27;;
69623;SDS011;56843;52.020;5.670;2023-04-24T02:45:53;4.03;;;1.48;;
69623;SDS011;56843;52.020;5.670;2023-04-24T02:47:23;5.63;;;2.30;;
69623;SDS011;56843;52.020;5.670;2023-04-24T02:48:54;5.67;;;2.13;;
69623;SDS011;56843;52.020;5.670;2023-04-24T02:50:24;3.37;;;1.33;;
69623;SDS011;56843;52.020;5.670;2023-04-24T02:51:55;5.72;;;1.90;;
69623;SDS011;56843;52.020;5.670;2023-04-24T02:53:25;3.53;;;1.10;;
69623;SDS011;56843;52.020;5.670;2023-04-24T02:54:56;4.63;;;2.17;;
69623;SDS011;56843;52.020;5.670;2023-04-24T02:56:26;5.95;;;2.38;;
69623;SDS011;56843;52.020;5.670;2023-04-24T02:57:58;5.85;;;2.38;;
69623;SDS011;56843;52.020;5.670;2023-04-24T02:59:28;7.53;;;2.97;;
69623;SDS011;56843;52.020;5.670;2023-04-24T03:00:59;6.78;;;2.72;;
69623;SDS011;56843;52.020;5.670;2023-04-24T03:02:30;5.67;;;2.10;;
69623;SDS011;56843;52.020;5.670;2023-04-24T03:04:01;5.70;;;2.17;;
69623;SDS011;56843;52.020;5.670;2023-04-24T03:05:31;5.50;;;2.30;;
69623;SDS011;56843;52.020;5.670;2023-04-24T03:07:02;5.43;;;2.47;;
69623;SDS011;56843;52.020;5.670;2023-04-24T03:08:33;4.57;;;1.73;;
69623;SDS011;56843;52.020;5.670;2023-04-24T03:10:04;6.43;;;2.28;;
69623;SDS011;56843;52.020;5.670;2023-04-24T03:11:35;5.80;;;2.47;;
69623;SDS011;56843;52.020;5.670;2023-04-24T03:13:06;5.53;;;2.30;;
69623;SDS011;56843;52.020;5.670;2023-04-24T03:14:38;6.68;;;2.53;;
69623;SDS011;56843;52.020;5.670;2023-04-24T03:16:08;6.47;;;2.20;;
69623;SDS011;56843;52.020;5.670;2023-04-24T03:17:39;6.00;;;2.15;;
69623;SDS011;56843;52.020;5.670;2023-04-24T03:19:10;5.73;;;2.03;;
69623;SDS011;56843;52.020;5.670;2023-04-24T03:20:48;5.10;;;2.20;;
69623;SDS011;56843;52.020;5.670;2023-04-24T03:22:20;6.95;;;2.50;;
69623;SDS011;56843;52.020;5.670;2023-04-24T03:23:50;5.72;;;1.83;;
69623;SDS011;56843;52.020;5.670;2023-04-24T03:25:21;5.60;;;2.37;;
69623;SDS011;56843;52.020;5.670;2023-04-24T03:26:52;7.35;;;2.30;;
69623;SDS011;56843;52.020;5.670;2023-04-24T03:28:38;5.40;;;2.00;;
69623;SDS011;56843;52.020;5.670;2023-04-24T03:30:09;3.40;;;1.53;;
69623;SDS011;56843;52.020;5.670;2023-04-24T03:31:48;6.10;;;2.08;;
69623;SDS011;56843;52.020;5.670;2023-04-24T03:33:18;5.47;;;2.30;;
69623;SDS011;56843;52.020;5.670;2023-04-24T03:34:59;3.80;;;1.27;;
69623;SDS011;56843;52.020;5.670;2023-04-24T03:36:30;3.17;;;1.27;;
69623;SDS011;56843;52.020;5.670;2023-04-24T03:38:01;5.10;;;2.45;;
69623;SDS011;56843;52.020;5.670;2023-04-24T03:39:57;3.45;;;1.27;;
69623;SDS011;56843;52.020;5.670;2023-04-24T03:41:29;7.25;;;2.28;;
69623;SDS011;56843;52.020;5.670;2023-04-24T03:43:08;3.08;;;1.10;;
69623;SDS011;56843;52.020;5.670;2023-04-24T03:44:38;3.73;;;1.57;;
69623;SDS011;56843;52.020;5.670;2023-04-24T03:46:09;6.82;;;2.67;;
69623;SDS011;56843;52.020;5.670;2023-04-24T03:47:43;7.97;;;3.03;;
69623;SDS011;56843;52.020;5.670;2023-04-24T03:49:14;9.93;;;1.73;;
69623;SDS011;56843;52.020;5.670;2023-04-24T03:50:47;6.70;;;3.00;;
69623;SDS011;56843;52.020;5.670;2023-04-24T03:52:18;7.55;;;3.67;;
69623;SDS011;56843;52.020;5.670;2023-04-24T03:53:49;7.33;;;2.60;;
69623;SDS011;56843;52.020;5.670;2023-04-24T03:55:23;9.15;;;3.15;;
69623;SDS011;56843;52.020;5.670;2023-04-24T03:56:54;10.77;;;3.80;;
69623;SDS011;56843;52.020;5.670;2023-04-24T03:58:24;8.73;;;3.80;;
69623;SDS011;56843;52.020;5.670;2023-04-24T03:59:57;8.57;;;4.07;;
69623;SDS011;56843;52.020;5.670;2023-04-24T04:01:29;8.80;;;3.90;;
69623;SDS011;56843;52.020;5.670;2023-04-24T04:03:10;11.75;;;4.57;;
69623;SDS011;56843;52.020;5.670;2023-04-24T04:04:41;8.10;;;3.77;;
69623;SDS011;56843;52.020;5.670;2023-04-24T04:06:11;8.77;;;4.67;;
69623;SDS011;56843;52.020;5.670;2023-04-24T04:07:43;10.77;;;3.75;;
69623;SDS011;56843;52.020;5.670;2023-04-24T04:09:14;6.88;;;3.05;;
69623;SDS011;56843;52.020;5.670;2023-04-24T04:10:44;11.20;;;4.93;;
69623;SDS011;56843;52.020;5.670;2023-04-24T04:12:15;10.82;;;4.65;;
69623;SDS011;56843;52.020;5.670;2023-04-24T04:13:45;13.57;;;5.03;;
69623;SDS011;56843;52.020;5.670;2023-04-24T04:15:20;10.43;;;4.60;;
69623;SDS011;56843;52.020;5.670;2023-04-24T04:16:53;10.32;;;5.00;;
69623;SDS011;56843;52.020;5.670;2023-04-24T04:18:24;12.02;;;5.00;;
69623;SDS011;56843;52.020;5.670;2023-04-24T04:19:54;8.83;;;2.87;;
69623;SDS011;56843;52.020;5.670;2023-04-24T04:21:26;8.20;;;3.33;;
69623;SDS011;56843;52.020;5.670;2023-04-24T04:23:04;10.98;;;5.15;;
69623;SDS011;56843;52.020;5.670;2023-04-24T04:24:45;10.52;;;5.10;;
69623;SDS011;56843;52.020;5.670;2023-04-24T04:26:16;10.05;;;5.57;;
69623;SDS011;56843;52.020;5.670;2023-04-24T04:28:03;10.85;;;4.82;;
69623;SDS011;56843;52.020;5.670;2023-04-24T04:29:34;17.73;;;6.07;;
69623;SDS011;56843;52.020;5.670;2023-04-24T04:31:07;12.18;;;6.10;;
69623;SDS011;56843;52.020;5.670;2023-04-24T04:32:38;10.00;;;5.35;;
69623;SDS011;56843;52.020;5.670;2023-04-24T04:34:08;13.23;;;4.03;;
69623;SDS011;56843;52.020;5.670;2023-04-24T04:35:39;13.25;;;5.50;;
69623;SDS011;56843;52.020;5.670;2023-04-24T04:37:11;10.48;;;5.40;;
69623;SDS011;56843;52.020;5.670;2023-04-24T04:39:09;9.57;;;5.05;;
69623;SDS011;56843;52.020;5.670;2023-04-24T04:40:50;11.33;;;5.57;;
69623;SDS011;56843;52.020;5.670;2023-04-24T04:42:22;10.73;;;5.27;;
69623;SDS011;56843;52.020;5.670;2023-04-24T04:43:54;14.27;;;6.32;;
69623;SDS011;56843;52.020;5.670;2023-04-24T04:45:25;12.02;;;5.70;;
69623;SDS011;56843;52.020;5.670;2023-04-24T04:47:35;12.50;;;6.03;;
69623;SDS011;56843;52.020;5.670;2023-04-24T04:49:06;12.93;;;6.43;;
69623;SDS011;56843;52.020;5.670;2023-04-24T04:50:39;17.00;;;5.90;;
69623;SDS011;56843;52.020;5.670;2023-04-24T04:52:11;10.60;;;4.95;;
69623;SDS011;56843;52.020;5.670;2023-04-24T04:53:42;9.90;;;5.10;;
69623;SDS011;56843;52.020;5.670;2023-04-24T04:55:12;11.27;;;5.07;;
69623;SDS011;56843;52.020;5.670;2023-04-24T04:57:06;9.32;;;4.68;;
69623;SDS011;56843;52.020;5.670;2023-04-24T04:58:37;9.98;;;5.07;;
69623;SDS011;56843;52.020;5.670;2023-04-24T05:00:09;12.13;;;4.72;;
69623;SDS011;56843;52.020;5.670;2023-04-24T05:01:49;10.05;;;5.03;;
69623;SDS011;56843;52.020;5.670;2023-04-24T05:03:20;9.63;;;3.95;;
69623;SDS011;56843;52.020;5.670;2023-04-24T05:04:54;8.50;;;3.83;;
69623;SDS011;56843;52.020;5.670;2023-04-24T05:06:25;11.57;;;4.90;;
69623;SDS011;56843;52.020;5.670;2023-04-24T05:07:57;8.30;;;3.40;;
69623;SDS011;56843;52.020;5.670;2023-04-24T05:09:27;11.47;;;2.20;;
69623;SDS011;56843;52.020;5.670;2023-04-24T05:11:05;4.82;;;1.95;;
69623;SDS011;56843;52.020;5.670;2023-04-24T05:12:36;5.72;;;2.25;;
69623;SDS011;56843;52.020;5.670;2023-04-24T05:14:07;4.38;;;1.80;;
69623;SDS011;56843;52.020;5.670;2023-04-24T05:15:42;4.45;;;1.92;;
69623;SDS011;56843;52.020;5.670;2023-04-24T05:17:13;4.67;;;1.70;;
69623;SDS011;56843;52.020;5.670;2023-04-24T05:18:44;9.43;;;1.85;;
69623;SDS011;56843;52.020;5.670;2023-04-24T05:20:18;5.63;;;1.63;;
69623;SDS011;56843;52.020;5.670;2023-04-24T05:21:48;6.40;;;1.60;;
69623;SDS011;56843;52.020;5.670;2023-04-24T05:23:19;6.40;;;1.63;;
69623;SDS011;56843;52.020;5.670;2023-04-24T05:24:53;4.55;;;1.40;;
69623;SDS011;56843;52.020;5.670;2023-04-24T05:26:36;2.97;;;1.20;;
69623;SDS011;56843;52.020;5.670;2023-04-24T05:28:06;4.28;;;1.30;;
69623;SDS011;56843;52.020;5.670;2023-04-24T05:29:37;2.47;;;1.07;;
69623;SDS011;56843;52.020;5.670;2023-04-24T05:31:09;3.72;;;0.98;;
69623;SDS011;56843;52.020;5.670;2023-04-24T05:32:40;4.32;;;1.13;;
69623;SDS011;56843;52.020;5.670;2023-04-24T05:34:11;3.80;;;0.93;;
69623;SDS011;56843;52.020;5.670;2023-04-24T05:35:45;2.38;;;0.88;;
69623;SDS011;56843;52.020;5.670;2023-04-24T05:37:16;2.97;;;0.90;;
69623;SDS011;56843;52.020;5.670;2023-04-24T05:38:47;1.90;;;0.63;;
69623;SDS011;56843;52.020;5.670;2023-04-24T05:40:18;1.77;;;0.77;;
69623;SDS011;56843;52.020;5.670;2023-04-24T05:41:49;2.47;;;0.70;;
69623;SDS011;56843;52.020;5.670;2023-04-24T05:43:19;9.07;;;0.82;;
69623;SDS011;56843;52.020;5.670;2023-04-24T05:44:50;1.63;;;0.60;;
69623;SDS011;56843;52.020;5.670;2023-04-24T05:46:20;2.10;;;0.70;;
69623;SDS011;56843;52.020;5.670;2023-04-24T05:47:51;1.65;;;0.63;;
69623;SDS011;56843;52.020;5.670;2023-04-24T05:49:22;1.98;;;0.80;;
69623;SDS011;56843;52.020;5.670;2023-04-24T05:50:53;2.23;;;0.73;;
69623;SDS011;56843;52.020;5.670;2023-04-24T05:52:24;2.00;;;0.70;;
69623;SDS011;56843;52.020;5.670;2023-04-24T05:53:54;3.57;;;0.90;;
69623;SDS011;56843;52.020;5.670;2023-04-24T05:55:25;1.65;;;0.60;;
69623;SDS011;56843;52.020;5.670;2023-04-24T05:56:56;4.35;;;0.60;;
69623;SDS011;56843;52.020;5.670;2023-04-24T05:58:40;6.30;;;0.90;;
69623;SDS011;56843;52.020;5.670;2023-04-24T06:00:11;2.40;;;0.70;;
69623;SDS011;56843;52.020;5.670;2023-04-24T06:01:49;3.40;;;0.93;;
69623;SDS011;56843;52.020;5.670;2023-04-24T06:03:23;2.58;;;0.70;;
69623;SDS011;56843;52.020;5.670;2023-04-24T06:04:53;2.17;;;0.97;;
69623;SDS011;56843;52.020;5.670;2023-04-24T06:06:24;3.90;;;0.95;;
69623;SDS011;56843;52.020;5.670;2023-04-24T06:07:56;5.18;;;0.93;;
69623;SDS011;56843;52.020;5.670;2023-04-24T06:09:30;5.13;;;1.17;;
69623;SDS011;56843;52.020;5.670;2023-04-24T06:11:01;2.40;;;1.07;;
69623;SDS011;56843;52.020;5.670;2023-04-24T06:12:31;5.63;;;1.10;;
69623;SDS011;56843;52.020;5.670;2023-04-24T06:14:06;4.50;;;1.43;;
69623;SDS011;56843;52.020;5.670;2023-04-24T06:15:43;3.87;;;1.20;;
69623;SDS011;56843;52.020;5.670;2023-04-24T06:17:19;4.10;;;1.35;;
69623;SDS011;56843;52.020;5.670;2023-04-24T06:18:51;4.70;;;1.50;;
69623;SDS011;56843;52.020;5.670;2023-04-24T06:20:23;4.97;;;1.30;;
69623;SDS011;56843;52.020;5.670;2023-04-24T06:21:54;3.40;;;1.30;;
69623;SDS011;56843;52.020;5.670;2023-04-24T06:23:24;5.20;;;1.40;;
69623;SDS011;56843;52.020;5.670;2023-04-24T06:24:55;3.42;;;1.10;;
69623;SDS011;56843;52.020;5.670;2023-04-24T06:26:25;2.90;;;1.00;;
69623;SDS011;56843;52.020;5.670;2023-04-24T06:27:56;3.08;;;1.20;;
69623;SDS011;56843;52.020;5.670;2023-04-24T06:29:27;6.23;;;1.33;;
69623;SDS011;56843;52.020;5.670;2023-04-24T06:30:57;6.35;;;1.33;;
69623;SDS011;56843;52.020;5.670;2023-04-24T06:32:28;4.13;;;1.30;;
69623;SDS011;56843;52.020;5.670;2023-04-24T06:33:58;3.07;;;1.00;;
69623;SDS011;56843;52.020;5.670;2023-04-24T06:35:29;2.75;;;1.10;;
69623;SDS011;56843;52.020;5.670;2023-04-24T06:37:00;3.70;;;1.00;;
69623;SDS011;56843;52.020;5.670;2023-04-24T06:38:30;4.28;;;1.23;;
69623;SDS011;56843;52.020;5.670;2023-04-24T06:40:01;3.23;;;1.23;;
69623;SDS011;56843;52.020;5.670;2023-04-24T06:41:31;2.83;;;1.20;;
69623;SDS011;56843;52.020;5.670;2023-04-24T06:43:02;5.20;;;1.40;;
69623;SDS011;56843;52.020;5.670;2023-04-24T06:44:33;3.53;;;1.17;;
69623;SDS011;56843;52.020;5.670;2023-04-24T06:46:07;5.63;;;1.25;;
69623;SDS011;56843;52.020;5.670;2023-04-24T06:47:38;2.93;;;1.00;;
69623;SDS011;56843;52.020;5.670;2023-04-24T06:49:09;2.57;;;1.00;;
69623;SDS011;56843;52.020;5.670;2023-04-24T06:50:39;2.97;;;1.08;;
69623;SDS011;56843;52.020;5.670;2023-04-24T06:52:13;3.05;;;0.93;;
69623;SDS011;56843;52.020;5.670;2023-04-24T06:53:43;3.10;;;1.00;;
69623;SDS011;56843;52.020;5.670;2023-04-24T06:55:14;6.67;;;1.50;;
69623;SDS011;56843;52.020;5.670;2023-04-24T06:56:46;3.63;;;1.10;;
69623;SDS011;56843;52.020;5.670;2023-04-24T06:58:17;3.80;;;1.10;;
69623;SDS011;56843;52.020;5.670;2023-04-24T06:59:48;6.20;;;1.33;;
69623;SDS011;56843;52.020;5.670;2023-04-24T07:01:18;8.10;;;1.00;;
69623;SDS011;56843;52.020;5.670;2023-04-24T07:02:49;5.53;;;1.17;;
69623;SDS011;56843;52.020;5.670;2023-04-24T07:04:19;2.93;;;1.20;;
69623;SDS011;56843;52.020;5.670;2023-04-24T07:05:50;7.35;;;1.52;;
69623;SDS011;56843;52.020;5.670;2023-04-24T07:07:21;2.23;;;0.90;;
69623;SDS011;56843;52.020;5.670;2023-04-24T07:08:51;2.17;;;0.80;;
69623;SDS011;56843;52.020;5.670;2023-04-24T07:10:22;3.15;;;1.13;;
69623;SDS011;56843;52.020;5.670;2023-04-24T07:11:53;2.90;;;1.10;;
69623;SDS011;56843;52.020;5.670;2023-04-24T07:13:26;3.17;;;1.20;;
69623;SDS011;56843;52.020;5.670;2023-04-24T07:14:56;3.30;;;1.05;;
69623;SDS011;56843;52.020;5.670;2023-04-24T07:16:27;3.57;;;0.93;;
69623;SDS011;56843;52.020;5.670;2023-04-24T07:17:58;3.42;;;1.05;;
69623;SDS011;56843;52.020;5.670;2023-04-24T07:19:28;5.27;;;1.10;;
69623;SDS011;56843;52.020;5.670;2023-04-24T07:20:59;3.72;;;1.40;;
69623;SDS011;56843;52.020;5.670;2023-04-24T07:22:30;5.35;;;1.20;;
69623;SDS011;56843;52.020;5.670;2023-04-24T07:24:01;3.77;;;1.10;;
69623;SDS011;56843;52.020;5.670;2023-04-24T07:25:31;3.50;;;1.17;;
69623;SDS011;56843;52.020;5.670;2023-04-24T07:27:03;3.70;;;1.40;;
69623;SDS011;56843;52.020;5.670;2023-04-24T07:28:34;3.27;;;1.00;;
69623;SDS011;56843;52.020;5.670;2023-04-24T07:30:05;3.75;;;1.00;;
69623;SDS011;56843;52.020;5.670;2023-04-24T07:31:37;5.32;;;1.80;;
69623;SDS011;56843;52.020;5.670;2023-04-24T07:33:07;3.17;;;1.00;;
69623;SDS011;56843;52.020;5.670;2023-04-24T07:34:38;3.83;;;1.00;;
69623;SDS011;56843;52.020;5.670;2023-04-24T07:36:08;3.08;;;1.00;;
69623;SDS011;56843;52.020;5.670;2023-04-24T07:37:45;4.88;;;0.90;;
69623;SDS011;56843;52.020;5.670;2023-04-24T07:39:15;4.30;;;0.90;;
69623;SDS011;56843;52.020;5.670;2023-04-24T07:40:46;3.17;;;1.03;;
69623;SDS011;56843;52.020;5.670;2023-04-24T07:42:17;3.20;;;1.20;;
69623;SDS011;56843;52.020;5.670;2023-04-24T07:43:47;5.37;;;1.27;;
69623;SDS011;56843;52.020;5.670;2023-04-24T07:45:18;5.05;;;1.30;;
69623;SDS011;56843;52.020;5.670;2023-04-24T07:46:48;2.93;;;1.03;;
69623;SDS011;56843;52.020;5.670;2023-04-24T07:48:18;3.97;;;1.50;;
69623;SDS011;56843;52.020;5.670;2023-04-24T07:49:51;4.03;;;1.20;;
69623;SDS011;56843;52.020;5.670;2023-04-24T07:51:22;4.77;;;1.50;;
69623;SDS011;56843;52.020;5.670;2023-04-24T07:52:52;2.97;;;1.00;;
69623;SDS011;56843;52.020;5.670;2023-04-24T07:54:22;6.03;;;1.30;;
69623;SDS011;56843;52.020;5.670;2023-04-24T07:55:54;5.13;;;1.52;;
69623;SDS011;56843;52.020;5.670;2023-04-24T07:57:25;4.47;;;1.15;;
69623;SDS011;56843;52.020;5.670;2023-04-24T07:58:56;4.00;;;1.40;;
69623;SDS011;56843;52.020;5.670;2023-04-24T08:00:26;4.47;;;1.40;;
69623;SDS011;56843;52.020;5.670;2023-04-24T08:01:57;4.38;;;1.27;;
69623;SDS011;56843;52.020;5.670;2023-04-24T08:03:27;6.00;;;1.50;;
69623;SDS011;56843;52.020;5.670;2023-04-24T08:04:58;4.13;;;1.35;;
69623;SDS011;56843;52.020;5.670;2023-04-24T08:06:28;3.87;;;1.30;;
69623;SDS011;56843;52.020;5.670;2023-04-24T08:08:00;7.25;;;1.60;;
69623;SDS011;56843;52.020;5.670;2023-04-24T08:09:30;3.23;;;1.30;;
69623;SDS011;56843;52.020;5.670;2023-04-24T08:11:01;6.83;;;1.30;;
69623;SDS011;56843;52.020;5.670;2023-04-24T08:12:31;4.22;;;1.42;;
69623;SDS011;56843;52.020;5.670;2023-04-24T08:14:02;5.90;;;1.50;;
69623;SDS011;56843;52.020;5.670;2023-04-24T08:15:33;6.13;;;1.60;;
69623;SDS011;56843;52.020;5.670;2023-04-24T08:17:03;4.27;;;1.30;;
69623;SDS011;56843;52.020;5.670;2023-04-24T08:18:34;4.73;;;1.40;;
69623;SDS011;56843;52.020;5.670;2023-04-24T08:20:06;5.03;;;1.35;;
69623;SDS011;56843;52.020;5.670;2023-04-24T08:21:40;4.20;;;1.40;;
69623;SDS011;56843;52.020;5.670;2023-04-24T08:23:10;5.07;;;1.50;;
69623;SDS011;56843;52.020;5.670;2023-04-24T08:24:41;5.10;;;1.60;;
69623;SDS011;56843;52.020;5.670;2023-04-24T08:26:12;4.73;;;1.70;;
69623;SDS011;56843;52.020;5.670;2023-04-24T08:27:43;4.82;;;1.42;;
69623;SDS011;56843;52.020;5.670;2023-04-24T08:29:13;7.63;;;1.98;;
69623;SDS011;56843;52.020;5.670;2023-04-24T08:30:44;5.80;;;1.80;;
69623;SDS011;56843;52.020;5.670;2023-04-24T08:32:15;4.60;;;1.30;;
69623;SDS011;56843;52.020;5.670;2023-04-24T08:33:47;4.50;;;1.45;;
69623;SDS011;56843;52.020;5.670;2023-04-24T08:35:17;4.07;;;1.37;;
69623;SDS011;56843;52.020;5.670;2023-04-24T08:36:48;3.72;;;1.65;;
69623;SDS011;56843;52.020;5.670;2023-04-24T08:38:19;5.28;;;2.10;;
69623;SDS011;56843;52.020;5.670;2023-04-24T08:39:50;7.80;;;1.80;;
69623;SDS011;56843;52.020;5.670;2023-04-24T08:41:20;6.78;;;1.63;;
69623;SDS011;56843;52.020;5.670;2023-04-24T08:42:53;4.67;;;1.57;;
69623;SDS011;56843;52.020;5.670;2023-04-24T08:44:26;6.90;;;1.60;;
69623;SDS011;56843;52.020;5.670;2023-04-24T08:45:57;6.63;;;1.70;;
69623;SDS011;56843;52.020;5.670;2023-04-24T08:47:27;6.97;;;1.80;;
69623;SDS011;56843;52.020;5.670;2023-04-24T08:48:59;4.75;;;1.50;;
69623;SDS011;56843;52.020;5.670;2023-04-24T08:50:30;4.70;;;1.55;;
69623;SDS011;56843;52.020;5.670;2023-04-24T08:52:02;5.50;;;1.40;;
69623;SDS011;56843;52.020;5.670;2023-04-24T08:53:32;5.07;;;1.53;;
69623;SDS011;56843;52.020;5.670;2023-04-24T08:55:04;4.18;;;1.40;;
69623;SDS011;56843;52.020;5.670;2023-04-24T08:56:36;5.35;;;1.42;;
69623;SDS011;56843;52.020;5.670;2023-04-24T08:58:09;3.75;;;1.30;;
69623;SDS011;56843;52.020;5.670;2023-04-24T08:59:40;4.15;;;1.40;;
69623;SDS011;56843;52.020;5.670;2023-04-24T09:01:12;6.03;;;1.30;;
69623;SDS011;56843;52.020;5.670;2023-04-24T09:02:43;4.65;;;1.50;;
69623;SDS011;56843;52.020;5.670;2023-04-24T09:04:15;3.23;;;1.07;;
69623;SDS011;56843;52.020;5.670;2023-04-24T09:05:48;5.37;;;1.40;;
69623;SDS011;56843;52.020;5.670;2023-04-24T09:07:20;5.15;;;1.40;;
69623;SDS011;56843;52.020;5.670;2023-04-24T09:08:54;6.15;;;1.48;;
69623;SDS011;56843;52.020;5.670;2023-04-24T09:10:26;4.18;;;1.35;;
69623;SDS011;56843;52.020;5.670;2023-04-24T09:11:58;6.07;;;1.52;;
69623;SDS011;56843;52.020;5.670;2023-04-24T09:13:29;4.75;;;1.33;;
69623;SDS011;56843;52.020;5.670;2023-04-24T09:15:00;8.23;;;1.98;;